createdAt,value
2023-05-05T00:00:26.926Z,34.81
2023-05-05T00:01:26.965Z,34.81
2023-05-05T00:02:26.991Z,34.80
2023-05-05T00:03:27.043Z,34.81
2023-05-05T00:04:26.920Z,34.81
2023-05-05T00:05:26.966Z,34.82
2023-05-05T00:06:27.332Z,34.82
2023-05-05T00:07:26.958Z,34.80
2023-05-05T00:08:26.966Z,34.82
2023-05-05T00:09:26.949Z,34.82
2023-05-05T00:10:26.956Z,34.82
2023-05-05T00:11:27.874Z,34.83
2023-05-05T00:12:26.934Z,34.83
2023-05-05T00:13:26.969Z,34.86
2023-05-05T00:14:26.955Z,34.86
2023-05-05T00:15:26.963Z,34.85
2023-05-05T00:16:27.020Z,34.86
2023-05-05T00:17:27.030Z,34.87
2023-05-05T00:18:26.945Z,34.87
2023-05-05T00:19:26.946Z,34.86
2023-05-05T00:20:26.944Z,34.87
2023-05-05T00:21:26.959Z,34.87
2023-05-05T00:22:26.987Z,34.89
2023-05-05T00:23:26.972Z,34.88
2023-05-05T00:24:26.994Z,34.87
2023-05-05T00:25:26.985Z,34.90
2023-05-05T00:26:27.104Z,34.88
2023-05-05T00:27:27.006Z,34.87
2023-05-05T00:28:27.019Z,34.91
2023-05-05T00:29:27.075Z,34.91
2023-05-05T00:30:27.066Z,34.89
2023-05-05T00:31:27.095Z,34.91
2023-05-05T00:32:27.088Z,34.91
2023-05-05T00:33:27.032Z,34.91
2023-05-05T00:34:27.081Z,34.93
2023-05-05T00:35:27.109Z,34.90
2023-05-05T00:36:27.089Z,34.92
2023-05-05T00:37:27.098Z,34.92
2023-05-05T00:38:27.127Z,34.94
2023-05-05T00:39:27.099Z,34.91
2023-05-05T00:40:27.116Z,34.95
2023-05-05T00:41:27.100Z,34.95
2023-05-05T00:42:27.191Z,34.94
2023-05-05T00:43:27.112Z,34.94
2023-05-05T00:44:27.135Z,34.94
2023-05-05T00:45:27.143Z,34.95
2023-05-05T00:46:27.335Z,34.93
2023-05-05T00:47:27.187Z,34.94
2023-05-05T00:48:27.155Z,34.98
2023-05-05T00:49:27.204Z,34.92
2023-05-05T00:50:27.162Z,34.96
2023-05-05T00:51:27.173Z,34.98
2023-05-05T00:52:27.230Z,34.96
2023-05-05T00:53:27.210Z,34.99
2023-05-05T00:54:27.198Z,34.95
2023-05-05T00:55:27.205Z,34.97
2023-05-05T00:56:27.243Z,34.97
2023-05-05T00:57:27.229Z,34.96
2023-05-05T00:58:27.234Z,34.97
2023-05-05T00:59:27.265Z,34.99
2023-05-05T01:00:27.294Z,35.00
2023-05-05T01:01:27.396Z,35.00
2023-05-05T01:02:27.334Z,35.01
2023-05-05T01:03:27.320Z,35.00
2023-05-05T01:04:27.308Z,35.01
2023-05-05T01:05:27.311Z,35.01
2023-05-05T01:06:27.325Z,35.01
2023-05-05T01:07:27.312Z,35.00
2023-05-05T01:08:27.325Z,35.01
2023-05-05T01:09:27.327Z,35.03
2023-05-05T01:10:27.598Z,35.00
2023-05-05T01:11:27.385Z,35.02
2023-05-05T01:12:27.332Z,35.03
2023-05-05T01:13:27.332Z,35.04
2023-05-05T01:14:27.367Z,35.04
2023-05-05T01:15:27.380Z,35.03
2023-05-05T01:16:27.421Z,35.03
2023-05-05T01:17:27.382Z,35.05
2023-05-05T01:18:27.384Z,35.06
2023-05-05T01:19:27.378Z,35.05
2023-05-05T01:20:27.398Z,35.03
2023-05-05T01:21:27.432Z,35.03
2023-05-05T01:22:27.415Z,35.04
2023-05-05T01:23:27.416Z,35.06
2023-05-05T01:24:27.409Z,35.06
2023-05-05T01:25:27.429Z,35.04
2023-05-05T01:26:27.423Z,35.07
2023-05-05T01:27:27.462Z,35.05
2023-05-05T01:28:27.457Z,35.05
2023-05-05T01:29:27.486Z,35.07
2023-05-05T01:30:27.506Z,35.05
2023-05-05T01:31:27.508Z,35.05
2023-05-05T01:32:27.502Z,35.04
2023-05-05T01:33:27.506Z,35.06
2023-05-05T01:34:27.548Z,35.06
2023-05-05T01:35:27.507Z,35.06
2023-05-05T01:36:27.523Z,35.06
2023-05-05T01:37:27.557Z,35.07
2023-05-05T01:38:27.552Z,35.08
2023-05-05T01:39:27.571Z,35.08
2023-05-05T01:40:27.604Z,35.09
2023-05-05T01:41:27.616Z,35.09
2023-05-05T01:42:27.616Z,35.10
2023-05-05T01:43:27.614Z,35.09
2023-05-05T01:44:27.646Z,35.10
2023-05-05T01:45:27.663Z,35.09
2023-05-05T01:46:27.648Z,35.10
2023-05-05T01:47:27.687Z,35.10
2023-05-05T01:48:27.710Z,35.11
2023-05-05T01:49:27.697Z,35.09
2023-05-05T01:50:27.702Z,35.12
2023-05-05T01:51:27.737Z,35.10
2023-05-05T01:52:27.725Z,35.10
2023-05-05T01:53:27.723Z,35.09
2023-05-05T01:54:27.744Z,35.12
2023-05-05T01:55:27.794Z,35.11
2023-05-05T01:56:27.809Z,35.11
2023-05-05T01:57:27.812Z,35.13
2023-05-05T01:58:27.806Z,35.13
2023-05-05T01:59:27.836Z,35.13
2023-05-05T02:00:27.853Z,35.13
2023-05-05T02:01:27.888Z,35.13
2023-05-05T02:02:27.903Z,35.13
2023-05-05T02:03:27.885Z,35.13
2023-05-05T02:04:27.900Z,35.11
2023-05-05T02:05:27.900Z,35.15
2023-05-05T02:06:27.881Z,35.13
2023-05-05T02:07:27.928Z,35.11
2023-05-05T02:08:27.894Z,35.14
2023-05-05T02:09:27.921Z,35.16
2023-05-05T02:10:27.920Z,35.15
2023-05-05T02:11:27.974Z,35.14
2023-05-05T02:12:27.923Z,35.17
2023-05-05T02:13:28.012Z,35.15
2023-05-05T02:14:27.971Z,35.15
2023-05-05T02:15:27.988Z,35.17
2023-05-05T02:16:27.990Z,35.16
2023-05-05T02:17:28.012Z,35.17
2023-05-05T02:18:27.998Z,35.16
2023-05-05T02:19:28.032Z,35.18
2023-05-05T02:20:28.000Z,35.17
2023-05-05T02:21:28.028Z,35.18
2023-05-05T02:22:28.056Z,35.17
2023-05-05T02:23:28.459Z,35.18
2023-05-05T02:24:28.078Z,35.19
2023-05-05T02:25:28.076Z,35.17
2023-05-05T02:26:28.122Z,35.18
2023-05-05T02:27:28.103Z,35.18
2023-05-05T02:28:28.158Z,35.19
2023-05-05T02:29:28.159Z,35.19
2023-05-05T02:30:28.198Z,35.18
2023-05-05T02:31:28.242Z,35.18
2023-05-05T02:32:28.213Z,35.19
2023-05-05T02:33:28.201Z,35.20
2023-05-05T02:34:28.212Z,35.20
2023-05-05T02:35:28.237Z,35.20
2023-05-05T02:36:28.321Z,35.21
2023-05-05T02:37:28.257Z,35.18
2023-05-05T02:38:28.267Z,35.23
2023-05-05T02:39:28.293Z,35.20
2023-05-05T02:40:28.347Z,35.21
2023-05-05T02:41:28.318Z,35.21
2023-05-05T02:42:28.318Z,35.18
2023-05-05T02:43:28.318Z,35.20
2023-05-05T02:44:28.357Z,35.22
2023-05-05T02:45:28.362Z,35.18
2023-05-05T02:46:28.440Z,35.21
2023-05-05T02:47:28.424Z,35.20
2023-05-05T02:48:28.422Z,35.21
2023-05-05T02:49:28.429Z,35.21
2023-05-05T02:50:28.445Z,35.21
2023-05-05T02:51:28.483Z,35.23
2023-05-05T02:52:28.468Z,35.23
2023-05-05T02:53:28.489Z,35.22
2023-05-05T02:54:28.505Z,35.23
2023-05-05T02:55:28.513Z,35.23
2023-05-05T02:56:28.541Z,35.25
2023-05-05T02:57:28.545Z,35.23
2023-05-05T02:58:28.617Z,35.25
2023-05-05T02:59:28.584Z,35.25
2023-05-05T03:00:28.615Z,35.26
2023-05-05T03:01:28.688Z,35.24
2023-05-05T03:02:28.706Z,35.26
2023-05-05T03:03:28.792Z,35.26
2023-05-05T03:04:28.673Z,35.27
2023-05-05T03:05:28.712Z,35.26
2023-05-05T03:06:28.720Z,35.25
2023-05-05T03:07:28.711Z,35.23
2023-05-05T03:08:28.749Z,35.26
2023-05-05T03:09:28.762Z,35.29
2023-05-05T03:10:28.753Z,35.25
2023-05-05T03:11:28.798Z,35.25
2023-05-05T03:12:28.827Z,35.25
2023-05-05T03:13:28.837Z,35.27
2023-05-05T03:14:29.570Z,35.24
2023-05-05T03:15:28.880Z,35.28
2023-05-05T03:16:28.888Z,35.27
2023-05-05T03:17:28.950Z,35.28
2023-05-05T03:18:28.926Z,35.28
2023-05-05T03:19:28.955Z,35.27
2023-05-05T03:20:28.963Z,35.28
2023-05-05T03:21:28.984Z,35.29
2023-05-05T03:22:28.994Z,35.26
2023-05-05T03:23:29.030Z,35.27
2023-05-05T03:24:29.059Z,35.29
2023-05-05T03:25:29.081Z,35.27
2023-05-05T03:26:29.091Z,35.30
2023-05-05T03:27:29.126Z,35.30
2023-05-05T03:28:29.174Z,35.28
2023-05-05T03:29:29.179Z,35.29
2023-05-05T03:30:29.188Z,35.31
2023-05-05T03:31:29.248Z,35.31
2023-05-05T03:32:29.257Z,35.30
2023-05-05T03:33:29.419Z,35.30
2023-05-05T03:34:29.267Z,35.31
2023-05-05T03:35:29.315Z,35.30
2023-05-05T03:36:29.616Z,35.30
2023-05-05T03:37:29.344Z,35.31
2023-05-05T03:38:29.371Z,35.30
2023-05-05T03:39:29.380Z,35.28
2023-05-05T03:40:40.454Z,35.31
2023-05-05T03:41:30.387Z,35.30
2023-05-05T03:42:29.392Z,35.31
2023-05-05T03:43:29.388Z,35.31
2023-05-05T03:44:29.378Z,35.28
2023-05-05T03:45:29.403Z,35.30
2023-05-05T03:46:29.399Z,35.32
2023-05-05T03:47:29.355Z,35.31
2023-05-05T03:48:29.355Z,35.31
2023-05-05T03:49:29.322Z,35.31
2023-05-05T03:50:29.324Z,35.34
2023-05-05T03:51:29.358Z,35.31
2023-05-05T03:52:29.307Z,35.31
2023-05-05T03:53:29.345Z,35.34
2023-05-05T03:54:29.297Z,35.34
2023-05-05T03:55:29.280Z,35.34
2023-05-05T03:56:29.292Z,35.35
2023-05-05T03:57:29.323Z,35.33
2023-05-05T03:58:29.337Z,35.32
2023-05-05T03:59:29.365Z,35.34
2023-05-05T04:00:29.385Z,35.34
2023-05-05T04:01:29.414Z,35.35
2023-05-05T04:02:29.457Z,35.33
2023-05-05T04:03:29.507Z,35.34
2023-05-05T04:04:29.553Z,35.36
2023-05-05T04:05:29.503Z,35.35
2023-05-05T04:06:29.536Z,35.34
2023-05-05T04:07:29.525Z,35.34
2023-05-05T04:08:29.585Z,35.32
2023-05-05T04:09:29.579Z,35.35
2023-05-05T04:10:29.714Z,35.33
2023-05-05T04:11:29.659Z,35.33
2023-05-05T04:12:29.661Z,35.32
2023-05-05T04:13:29.699Z,35.36
2023-05-05T04:14:29.699Z,35.34
2023-05-05T04:15:29.733Z,35.34
2023-05-05T04:16:29.806Z,35.33
2023-05-05T04:17:29.834Z,35.32
2023-05-05T04:18:29.823Z,35.34
2023-05-05T04:19:29.840Z,35.33
2023-05-05T04:20:29.862Z,35.33
2023-05-05T04:21:29.916Z,35.32
2023-05-05T04:22:29.923Z,35.32
2023-05-05T04:23:29.971Z,35.34
2023-05-05T04:24:29.989Z,35.33
2023-05-05T04:25:29.994Z,35.35
2023-05-05T04:26:30.008Z,35.34
2023-05-05T04:27:30.058Z,35.35
2023-05-05T04:28:30.062Z,35.34
2023-05-05T04:29:30.084Z,35.34
2023-05-05T04:30:30.149Z,35.34
2023-05-05T04:31:30.577Z,35.36
2023-05-05T04:32:30.215Z,35.33
2023-05-05T04:33:30.202Z,35.33
2023-05-05T04:34:30.266Z,35.35
2023-05-05T04:35:30.280Z,35.35
2023-05-05T04:36:30.264Z,35.35
2023-05-05T04:37:30.313Z,35.33
2023-05-05T04:38:30.455Z,35.34
2023-05-05T04:39:30.433Z,35.31
2023-05-05T04:40:30.418Z,35.32
2023-05-05T04:41:30.487Z,35.34
2023-05-05T04:42:30.470Z,35.32
2023-05-05T04:43:30.487Z,35.33
2023-05-05T04:44:30.518Z,35.33
2023-05-05T04:45:30.531Z,35.34
2023-05-05T04:46:30.563Z,35.34
2023-05-05T04:47:30.604Z,35.33
2023-05-05T04:48:30.609Z,35.31
2023-05-05T04:49:31.498Z,35.33
2023-05-05T04:50:30.622Z,35.32
2023-05-05T04:51:30.976Z,35.32
2023-05-05T04:52:30.701Z,35.32
2023-05-05T04:53:30.695Z,35.33
2023-05-05T04:54:30.743Z,35.31
2023-05-05T04:55:30.743Z,35.29
2023-05-05T04:56:30.803Z,35.28
2023-05-05T04:57:30.798Z,35.28
2023-05-05T04:58:30.983Z,35.26
2023-05-05T04:59:30.836Z,35.28
2023-05-05T05:00:30.857Z,35.26
2023-05-05T05:01:30.913Z,35.26
2023-05-05T05:02:30.960Z,35.25
2023-05-05T05:03:31.050Z,35.28
2023-05-05T05:04:30.974Z,35.27
2023-05-05T05:05:30.984Z,35.28
2023-05-05T05:06:30.993Z,35.24
2023-05-05T05:07:30.993Z,35.25
2023-05-05T05:08:31.028Z,35.24
2023-05-05T05:09:31.026Z,35.26
2023-05-05T05:10:31.103Z,35.24
2023-05-05T05:11:31.087Z,35.27
2023-05-05T05:12:31.129Z,35.25
2023-05-05T05:13:31.124Z,35.25
2023-05-05T05:14:31.137Z,35.24
2023-05-05T05:15:31.170Z,35.25
2023-05-05T05:16:31.212Z,35.24
2023-05-05T05:17:31.252Z,35.23
2023-05-05T05:18:31.259Z,35.23
2023-05-05T05:19:31.267Z,35.23
2023-05-05T05:20:31.260Z,35.23
2023-05-05T05:21:31.246Z,35.24
2023-05-05T05:22:31.260Z,35.22
2023-05-05T05:23:31.296Z,35.23
2023-05-05T05:24:31.321Z,35.23
2023-05-05T05:25:31.345Z,35.23
2023-05-05T05:26:31.365Z,35.24
2023-05-05T05:27:31.366Z,35.23
2023-05-05T05:28:31.385Z,35.24
2023-05-05T05:29:31.450Z,35.23
2023-05-05T05:30:31.422Z,35.23
2023-05-05T05:31:31.528Z,35.26
2023-05-05T05:32:31.492Z,35.25
2023-05-05T05:33:31.484Z,35.23
2023-05-05T05:34:31.500Z,35.41
2023-05-05T05:35:31.524Z,35.36
2023-05-05T05:36:31.521Z,35.91
2023-05-05T05:37:31.551Z,36.27
2023-05-05T05:38:31.546Z,36.43
2023-05-05T05:39:31.533Z,37.05
2023-05-05T05:40:31.564Z,37.19
2023-05-05T05:41:32.009Z,37.31
2023-05-05T05:42:31.528Z,37.70
2023-05-05T05:43:31.655Z,37.98
2023-05-05T05:44:31.514Z,38.23
2023-05-05T05:45:31.530Z,38.51
2023-05-05T05:46:31.674Z,38.58
2023-05-05T05:47:31.681Z,38.65
2023-05-05T05:48:31.717Z,38.91
2023-05-05T05:49:31.747Z,39.00
2023-05-05T05:50:31.795Z,38.88
2023-05-05T05:51:31.888Z,38.87
2023-05-05T05:52:31.916Z,38.88
2023-05-05T05:53:32.004Z,38.90
2023-05-05T05:54:32.060Z,38.91
2023-05-05T05:55:32.142Z,39.10
2023-05-05T05:56:32.206Z,39.14
2023-05-05T05:57:32.236Z,39.07
2023-05-05T05:58:32.232Z,39.10
2023-05-05T05:59:32.284Z,39.17
2023-05-05T06:00:32.333Z,39.05
2023-05-05T06:01:32.438Z,39.03
2023-05-05T06:02:32.461Z,39.05
2023-05-05T06:03:32.550Z,39.09
2023-05-05T06:04:32.554Z,39.14
2023-05-05T06:05:32.649Z,39.06
2023-05-05T06:06:33.005Z,39.11
2023-05-05T06:07:32.589Z,39.10
2023-05-05T06:08:33.012Z,39.04
2023-05-05T06:09:32.706Z,39.10
2023-05-05T06:10:33.038Z,39.08
2023-05-05T06:11:32.763Z,39.03
2023-05-05T06:12:32.838Z,39.06
2023-05-05T06:13:32.790Z,39.02
2023-05-05T06:14:32.851Z,39.04
2023-05-05T06:15:32.808Z,39.06
2023-05-05T06:16:33.074Z,38.94
2023-05-05T06:17:32.857Z,39.00
2023-05-05T06:18:32.869Z,39.09
2023-05-05T06:19:32.896Z,39.03
2023-05-05T06:20:32.909Z,39.01
2023-05-05T06:21:32.874Z,38.94
2023-05-05T06:22:32.946Z,38.90
2023-05-05T06:23:33.035Z,38.86
2023-05-05T06:24:32.968Z,38.85
2023-05-05T06:25:33.000Z,38.85
2023-05-05T06:26:33.040Z,38.85
2023-05-05T06:27:36.008Z,38.82
2023-05-05T06:28:33.655Z,38.77
2023-05-05T06:29:32.984Z,38.81
2023-05-05T06:30:33.004Z,38.75
2023-05-05T06:31:33.016Z,38.77
2023-05-05T06:32:33.015Z,38.74
2023-05-05T06:33:32.993Z,38.73
2023-05-05T06:34:32.946Z,38.69
2023-05-05T06:35:32.967Z,38.68
2023-05-05T06:36:33.026Z,38.68
2023-05-05T06:37:32.943Z,38.68
2023-05-05T06:38:33.038Z,38.69
2023-05-05T06:39:33.077Z,38.62
2023-05-05T06:40:32.946Z,38.63
2023-05-05T06:41:32.948Z,38.56
2023-05-05T06:42:32.913Z,38.54
2023-05-05T06:43:32.997Z,38.54
2023-05-05T06:44:32.885Z,38.54
2023-05-05T06:45:32.886Z,38.59
2023-05-05T06:46:32.871Z,38.58
2023-05-05T06:47:33.082Z,38.49
2023-05-05T06:48:32.865Z,38.45
2023-05-05T06:49:32.856Z,38.45
2023-05-05T06:50:32.849Z,38.50
2023-05-05T06:51:32.830Z,38.48
2023-05-05T06:52:32.830Z,38.45
2023-05-05T06:53:32.876Z,38.43
2023-05-05T06:54:32.813Z,38.38
2023-05-05T06:55:32.798Z,38.37
2023-05-05T06:56:32.818Z,38.35
2023-05-05T06:57:32.853Z,38.35
2023-05-05T06:58:32.784Z,38.32
2023-05-05T06:59:32.790Z,38.38
2023-05-05T07:00:32.811Z,38.32
2023-05-05T07:01:32.786Z,38.30
2023-05-05T07:02:32.758Z,38.33
2023-05-05T07:03:32.849Z,38.30
2023-05-05T07:04:32.788Z,38.28
2023-05-05T07:05:32.754Z,38.24
2023-05-05T07:06:32.751Z,38.21
2023-05-05T07:07:32.741Z,38.23
2023-05-05T07:08:33.058Z,38.27
2023-05-05T07:09:32.774Z,38.24
2023-05-05T07:10:32.704Z,38.19
2023-05-05T07:11:32.702Z,38.19
2023-05-05T07:12:32.776Z,38.21
2023-05-05T07:13:32.707Z,38.19
2023-05-05T07:14:32.660Z,38.19
2023-05-05T07:15:32.711Z,38.17
2023-05-05T07:16:32.760Z,38.14
2023-05-05T07:17:32.696Z,38.13
2023-05-05T07:18:32.731Z,38.10
2023-05-05T07:19:32.898Z,38.13
2023-05-05T07:20:32.652Z,38.16
2023-05-05T07:21:32.641Z,38.14
2023-05-05T07:22:32.626Z,38.14
2023-05-05T07:23:32.634Z,38.11
2023-05-05T07:24:32.627Z,38.09
2023-05-05T07:25:32.715Z,38.10
2023-05-05T07:26:32.599Z,38.04
2023-05-05T07:27:32.585Z,38.07
2023-05-05T07:28:32.613Z,38.03
2023-05-05T07:29:33.041Z,38.03
2023-05-05T07:30:32.603Z,38.01
2023-05-05T07:31:32.629Z,38.01
2023-05-05T07:32:32.602Z,38.20
2023-05-05T07:33:32.646Z,38.26
2023-05-05T07:34:33.139Z,38.39
2023-05-05T07:35:32.686Z,38.78
2023-05-05T07:36:32.760Z,39.00
2023-05-05T07:37:32.814Z,39.11
2023-05-05T07:38:32.862Z,39.31
2023-05-05T07:39:32.917Z,39.35
2023-05-05T07:40:32.978Z,39.62
2023-05-05T07:41:33.094Z,39.91
2023-05-05T07:42:33.112Z,40.00
2023-05-05T07:43:33.096Z,40.24
2023-05-05T07:44:33.116Z,40.48
2023-05-05T07:45:33.127Z,40.50
2023-05-05T07:46:33.180Z,40.70
2023-05-05T07:47:33.227Z,40.77
2023-05-05T07:48:33.173Z,40.90
2023-05-05T07:49:33.219Z,41.08
2023-05-05T07:50:33.219Z,41.17
2023-05-05T07:51:34.494Z,41.22
2023-05-05T07:52:45.408Z,41.31
2023-05-05T07:53:34.164Z,41.59
2023-05-05T07:54:33.271Z,41.68
2023-05-05T07:55:33.207Z,41.88
2023-05-05T07:56:33.157Z,41.93
2023-05-05T07:57:33.229Z,42.01
2023-05-05T07:58:33.153Z,42.17
2023-05-05T07:59:33.118Z,42.78
2023-05-05T08:00:33.180Z,42.58
2023-05-05T08:01:33.219Z,42.72
2023-05-05T08:02:33.412Z,42.69
2023-05-05T08:03:33.521Z,42.87
2023-05-05T08:04:33.423Z,42.99
2023-05-05T08:05:33.454Z,43.29
2023-05-05T08:06:33.477Z,43.46
2023-05-05T08:07:33.611Z,43.59
2023-05-05T08:08:33.604Z,43.83
2023-05-05T08:09:33.618Z,43.92
2023-05-05T08:10:33.657Z,44.04
2023-05-05T08:11:33.720Z,44.41
2023-05-05T08:12:33.872Z,44.11
2023-05-05T08:13:33.792Z,44.10
2023-05-05T08:14:33.749Z,44.29
2023-05-05T08:15:33.908Z,44.44
2023-05-05T08:16:33.879Z,44.80
2023-05-05T08:17:33.932Z,44.75
2023-05-05T08:18:33.872Z,44.84
2023-05-05T08:19:33.852Z,44.82
2023-05-05T08:20:33.871Z,45.04
2023-05-05T08:21:33.905Z,45.36
2023-05-05T08:22:33.923Z,45.49
2023-05-05T08:23:33.907Z,45.61
2023-05-05T08:24:33.964Z,45.68
2023-05-05T08:25:33.885Z,45.39
2023-05-05T08:26:33.890Z,45.46
2023-05-05T08:27:34.054Z,45.03
2023-05-05T08:28:33.927Z,44.88
2023-05-05T08:29:33.985Z,45.02
2023-05-05T08:30:33.966Z,45.09
2023-05-05T08:31:34.028Z,45.12
2023-05-05T08:32:34.079Z,45.36
2023-05-05T08:33:34.007Z,45.43
2023-05-05T08:34:34.053Z,45.46
2023-05-05T08:35:34.073Z,45.66
2023-05-05T08:36:34.089Z,45.52
2023-05-05T08:37:34.170Z,45.70
2023-05-05T08:38:34.190Z,45.58
2023-05-05T08:39:34.323Z,43.75
2023-05-05T08:40:34.280Z,41.75
2023-05-05T08:41:34.340Z,41.36
2023-05-05T08:42:38.790Z,41.96
2023-05-05T08:43:34.431Z,42.09
2023-05-05T08:44:35.047Z,42.45
2023-05-05T08:45:34.551Z,42.06
2023-05-05T08:46:34.426Z,42.09
2023-05-05T08:47:34.466Z,42.22
2023-05-05T08:48:34.359Z,42.38
2023-05-05T08:49:34.356Z,42.77
2023-05-05T08:50:34.430Z,42.75
2023-05-05T08:51:34.381Z,42.82
2023-05-05T08:52:34.582Z,42.91
2023-05-05T08:53:34.317Z,42.89
2023-05-05T08:54:34.559Z,43.21
2023-05-05T08:55:34.347Z,43.56
2023-05-05T08:56:34.336Z,43.70
2023-05-05T08:57:34.377Z,43.60
2023-05-05T08:58:34.575Z,43.60
2023-05-05T08:59:34.423Z,43.71
2023-05-05T09:00:34.389Z,43.84
2023-05-05T09:01:34.641Z,44.09
2023-05-05T09:02:34.461Z,44.31
2023-05-05T09:03:34.464Z,44.38
2023-05-05T09:04:34.419Z,44.43
2023-05-05T09:05:34.429Z,44.42
2023-05-05T09:06:34.394Z,43.96
2023-05-05T09:07:34.416Z,44.34
2023-05-05T09:08:34.440Z,44.21
2023-05-05T09:09:34.457Z,44.25
2023-05-05T09:10:34.506Z,44.14
2023-05-05T09:11:34.486Z,44.23
2023-05-05T09:12:34.632Z,44.13
2023-05-05T09:13:34.576Z,44.34
2023-05-05T09:14:34.709Z,44.33
2023-05-05T09:15:34.692Z,44.26
2023-05-05T09:16:34.844Z,44.43
2023-05-05T09:17:34.933Z,44.41
2023-05-05T09:18:34.880Z,44.42
2023-05-05T09:19:34.947Z,44.35
2023-05-05T09:20:34.971Z,44.51
2023-05-05T09:21:35.043Z,44.49
2023-05-05T09:22:35.091Z,44.41
2023-05-05T09:23:35.152Z,44.73
2023-05-05T09:24:35.255Z,44.68
2023-05-05T09:25:37.101Z,44.69
2023-05-05T09:26:35.331Z,44.69
2023-05-05T09:27:35.392Z,44.91
2023-05-05T09:28:35.472Z,45.34
2023-05-05T09:29:35.542Z,44.83
2023-05-05T09:30:35.604Z,44.82
2023-05-05T09:31:35.628Z,44.94
2023-05-05T09:32:35.932Z,44.79
2023-05-05T09:33:35.824Z,44.71
2023-05-05T09:34:35.820Z,44.46
2023-05-05T09:35:35.865Z,44.42
2023-05-05T09:36:35.937Z,44.38
2023-05-05T09:37:35.961Z,43.86
2023-05-05T09:38:36.041Z,44.21
2023-05-05T09:39:36.076Z,44.10
2023-05-05T09:40:36.138Z,44.10
2023-05-05T09:41:36.177Z,44.15
2023-05-05T09:42:36.186Z,44.28
2023-05-05T09:43:36.248Z,44.48
2023-05-05T09:44:36.585Z,44.65
2023-05-05T09:45:36.319Z,44.75
2023-05-05T09:46:36.417Z,44.91
2023-05-05T09:47:36.493Z,45.09
2023-05-05T09:48:36.495Z,45.10
2023-05-05T09:49:36.724Z,45.27
2023-05-05T09:50:36.536Z,45.52
2023-05-05T09:51:36.597Z,45.47
2023-05-05T09:52:36.681Z,45.29
2023-05-05T09:53:36.691Z,45.18
2023-05-05T09:54:36.705Z,44.85
2023-05-05T09:55:36.768Z,44.81
2023-05-05T09:56:36.815Z,44.70
2023-05-05T09:57:36.887Z,44.52
2023-05-05T09:58:36.933Z,44.00
2023-05-05T09:59:36.944Z,44.02
2023-05-05T10:00:37.000Z,43.76
2023-05-05T10:01:37.067Z,43.94
2023-05-05T10:02:37.126Z,43.73
2023-05-05T10:03:37.119Z,43.37
2023-05-05T10:04:37.198Z,43.32
2023-05-05T10:05:37.267Z,42.92
2023-05-05T10:06:37.275Z,42.81
2023-05-05T10:07:37.325Z,42.91
2023-05-05T10:08:37.387Z,42.43
2023-05-05T10:09:37.395Z,42.94
2023-05-05T10:10:37.465Z,42.93
2023-05-05T10:11:37.542Z,42.82
2023-05-05T10:12:37.664Z,43.01
2023-05-05T10:13:37.595Z,43.13
2023-05-05T10:14:37.668Z,43.31
2023-05-05T10:15:37.737Z,43.49
2023-05-05T10:16:37.759Z,43.57
2023-05-05T10:17:37.852Z,43.64
2023-05-05T10:18:37.856Z,43.84
2023-05-05T10:19:37.887Z,43.81
2023-05-05T10:20:38.081Z,43.89
2023-05-05T10:21:38.989Z,43.90
2023-05-05T10:22:38.013Z,43.91
2023-05-05T10:23:38.070Z,44.10
2023-05-05T10:24:38.124Z,44.16
2023-05-05T10:25:38.141Z,44.15
2023-05-05T10:26:38.184Z,43.53
2023-05-05T10:27:38.255Z,43.59
2023-05-05T10:28:38.659Z,43.80
2023-05-05T10:29:38.333Z,43.79
2023-05-05T10:30:38.354Z,43.43
2023-05-05T10:31:38.422Z,43.35
2023-05-05T10:33:38.589Z,43.40
2023-05-05T10:34:38.542Z,43.55
2023-05-05T10:35:38.494Z,43.71
2023-05-05T10:36:38.452Z,43.69
2023-05-05T10:37:38.592Z,43.78
2023-05-05T10:38:38.475Z,43.84
2023-05-05T10:39:38.420Z,43.91
2023-05-05T10:40:38.428Z,43.93
2023-05-05T10:41:38.417Z,43.89
2023-05-05T10:42:38.399Z,43.92
2023-05-05T10:43:38.594Z,43.95
2023-05-05T10:44:38.603Z,43.96
2023-05-05T10:45:38.437Z,43.93
2023-05-05T10:46:38.468Z,43.94
2023-05-05T10:47:38.444Z,43.96
2023-05-05T10:48:38.428Z,43.98
2023-05-05T10:49:38.629Z,44.03
2023-05-05T10:50:38.346Z,43.96
2023-05-05T10:51:40.397Z,44.05
2023-05-05T10:52:38.371Z,44.04
2023-05-05T10:53:38.438Z,44.03
2023-05-05T10:54:38.700Z,44.07
2023-05-05T10:55:38.383Z,44.11
2023-05-05T10:56:38.365Z,44.08
2023-05-05T10:57:38.370Z,44.02
2023-05-05T10:58:51.028Z,44.01
2023-05-05T10:59:39.402Z,44.03
2023-05-05T11:00:38.419Z,44.02
2023-05-05T11:01:38.422Z,44.00
2023-05-05T11:02:38.405Z,43.97
2023-05-05T11:03:38.403Z,43.99
2023-05-05T11:04:38.369Z,44.00
2023-05-05T11:05:38.365Z,44.00
2023-05-05T11:06:38.353Z,44.05
2023-05-05T11:07:38.338Z,43.96
2023-05-05T11:08:38.373Z,44.00
2023-05-05T11:09:38.421Z,43.97
2023-05-05T11:10:38.367Z,43.97
2023-05-05T11:11:38.296Z,43.95
2023-05-05T11:12:39.012Z,43.96
2023-05-05T11:13:38.334Z,43.95
2023-05-05T11:14:38.302Z,43.96
2023-05-05T11:15:38.310Z,43.94
2023-05-05T11:16:38.321Z,43.91
2023-05-05T11:17:38.293Z,43.95
2023-05-05T11:18:38.277Z,43.92
2023-05-05T11:19:38.341Z,43.93
2023-05-05T11:20:38.242Z,43.92
2023-05-05T11:21:38.286Z,43.88
2023-05-05T11:22:38.323Z,43.88
2023-05-05T11:23:38.664Z,43.84
2023-05-05T11:24:38.351Z,43.89
2023-05-05T11:25:38.564Z,43.83
2023-05-05T11:26:38.402Z,43.85
2023-05-05T11:27:38.431Z,43.81
2023-05-05T11:28:38.508Z,43.84
2023-05-05T11:29:38.544Z,43.83
2023-05-05T11:30:38.495Z,43.80
2023-05-05T11:31:38.647Z,43.81
2023-05-05T11:32:38.591Z,43.81
2023-05-05T11:33:38.605Z,43.79
2023-05-05T11:34:38.615Z,43.81
2023-05-05T11:35:38.680Z,43.75
2023-05-05T11:36:38.690Z,43.79
2023-05-05T11:37:38.727Z,43.76
2023-05-05T11:38:38.742Z,43.74
2023-05-05T11:39:38.756Z,43.72
2023-05-05T11:40:38.814Z,43.74
2023-05-05T11:41:38.835Z,43.73
2023-05-05T11:42:38.861Z,43.75
2023-05-05T11:43:38.974Z,43.70
2023-05-05T11:44:38.949Z,43.70
2023-05-05T11:45:38.968Z,43.70
2023-05-05T11:46:39.030Z,43.70
2023-05-05T11:47:39.074Z,43.69
2023-05-05T11:48:39.075Z,43.63
2023-05-05T11:49:39.098Z,43.64
2023-05-05T11:50:39.159Z,43.64
2023-05-05T11:51:39.168Z,43.60
2023-05-05T11:52:39.234Z,43.65
2023-05-05T11:53:39.255Z,43.61
2023-05-05T11:54:39.293Z,43.55
2023-05-05T11:55:39.324Z,43.53
2023-05-05T11:56:39.368Z,43.54
2023-05-05T11:57:39.451Z,43.50
2023-05-05T11:58:39.461Z,43.50
2023-05-05T11:59:39.485Z,43.47
2023-05-05T12:00:39.563Z,43.47
2023-05-05T12:01:39.582Z,43.46
2023-05-05T12:02:39.654Z,43.45
2023-05-05T12:03:39.789Z,43.51
2023-05-05T12:04:39.740Z,43.48
2023-05-05T12:05:39.770Z,43.48
2023-05-05T12:06:39.775Z,43.50
2023-05-05T12:07:39.822Z,43.46
2023-05-05T12:08:39.863Z,43.46
2023-05-05T12:09:39.942Z,43.44
2023-05-05T12:10:39.962Z,43.46
2023-05-05T12:11:39.995Z,43.49
2023-05-05T12:12:40.172Z,43.47
2023-05-05T12:13:40.195Z,43.46
2023-05-05T12:14:40.127Z,43.42
2023-05-05T12:15:40.173Z,43.38
2023-05-05T12:16:40.245Z,43.35
2023-05-05T12:17:40.348Z,43.36
2023-05-05T12:18:40.302Z,43.36
2023-05-05T12:19:40.378Z,43.36
2023-05-05T12:20:40.388Z,43.34
2023-05-05T12:21:40.428Z,43.31
2023-05-05T12:22:40.504Z,43.31
2023-05-05T12:23:40.557Z,43.32
2023-05-05T12:24:40.579Z,43.31
2023-05-05T12:25:40.637Z,43.27
2023-05-05T12:26:40.673Z,43.27
2023-05-05T12:27:40.707Z,43.24
2023-05-05T12:28:40.754Z,43.23
2023-05-05T12:29:40.787Z,43.22
2023-05-05T12:30:40.873Z,43.22
2023-05-05T12:31:40.887Z,43.24
2023-05-05T12:32:40.963Z,43.23
2023-05-05T12:33:40.978Z,43.26
2023-05-05T12:34:41.015Z,43.26
2023-05-05T12:35:41.105Z,43.21
2023-05-05T12:36:41.111Z,43.23
2023-05-05T12:37:41.181Z,43.23
2023-05-05T12:38:41.207Z,43.23
2023-05-05T12:39:41.234Z,43.21
2023-05-05T12:40:41.284Z,43.17
2023-05-05T12:41:41.317Z,43.19
2023-05-05T12:42:41.384Z,43.12
2023-05-05T12:43:41.409Z,43.12
2023-05-05T12:44:41.481Z,43.10
2023-05-05T12:45:41.564Z,43.12
2023-05-05T12:46:41.547Z,43.10
2023-05-05T12:47:41.600Z,43.08
2023-05-05T12:48:41.674Z,43.06
2023-05-05T12:49:41.671Z,43.11
2023-05-05T12:50:41.729Z,43.07
2023-05-05T12:51:41.760Z,43.09
2023-05-05T12:52:41.817Z,43.07
2023-05-05T12:53:41.848Z,43.07